createdAt,value
2019-02-21T00:01:37.939Z,5.00
2019-02-21T00:04:27.558Z,4.98
2019-02-21T00:07:16.726Z,4.95
2019-02-21T00:10:06.514Z,4.91
2019-02-21T00:12:56.018Z,4.85
2019-02-21T00:15:45.521Z,4.82
2019-02-21T00:18:34.990Z,4.78
2019-02-21T00:21:24.277Z,4.70
2019-02-21T00:24:13.871Z,4.65
2019-02-21T00:27:03.324Z,4.63
2019-02-21T00:29:52.642Z,4.60
2019-02-21T00:32:42.211Z,4.53
2019-02-21T00:35:32.838Z,4.48
2019-02-21T00:38:22.180Z,4.44
2019-02-21T00:41:12.181Z,4.36
2019-02-21T00:44:01.503Z,3.76
2019-02-21T00:46:51.069Z,4.23
2019-02-21T00:49:40.598Z,4.20
2019-02-21T00:52:31.500Z,4.18
2019-02-21T00:55:20.975Z,4.13
2019-02-21T00:58:10.586Z,4.13
2019-02-21T01:00:59.840Z,4.09
2019-02-21T01:03:49.165Z,4.07
2019-02-21T01:06:38.349Z,4.05
2019-02-21T01:09:27.643Z,4.03
2019-02-21T01:12:17.093Z,4.02
2019-02-21T01:15:08.405Z,3.98
2019-02-21T01:17:57.784Z,3.96
2019-02-21T01:20:47.860Z,3.95
2019-02-21T01:23:37.479Z,3.96
2019-02-21T01:26:26.927Z,3.95
2019-02-21T01:29:16.190Z,3.91
2019-02-21T01:32:05.680Z,3.88
2019-02-21T01:34:55.267Z,3.85
2019-02-21T01:37:45.670Z,3.82
2019-02-21T01:40:34.894Z,3.82
2019-02-21T01:43:24.358Z,3.80
2019-02-21T01:46:13.712Z,3.75
2019-02-21T01:49:03.175Z,3.74
2019-02-21T01:51:52.475Z,3.75
2019-02-21T01:54:41.905Z,3.76
2019-02-21T01:57:31.606Z,3.76
2019-02-21T02:00:20.828Z,3.76
2019-02-21T02:03:10.333Z,3.77
2019-02-21T02:05:59.926Z,3.78
2019-02-21T02:08:49.629Z,3.79
2019-02-21T02:11:38.818Z,3.81
2019-02-21T02:14:28.579Z,3.85
2019-02-21T02:17:17.857Z,3.85
2019-02-21T02:20:07.691Z,3.87
2019-02-21T02:22:57.187Z,3.87
2019-02-21T02:25:46.748Z,3.84
2019-02-21T02:28:36.114Z,3.84
2019-02-21T02:31:25.547Z,3.83
2019-02-21T02:34:15.179Z,3.82
2019-02-21T02:37:04.704Z,3.83
2019-02-21T02:39:54.998Z,3.81
2019-02-21T02:42:46.147Z,3.84
2019-02-21T02:45:35.431Z,3.82
2019-02-21T02:48:24.950Z,3.83
2019-02-21T02:51:14.666Z,3.85
2019-02-21T02:54:04.115Z,3.85
2019-02-21T02:56:53.579Z,3.85
2019-02-21T02:59:42.852Z,3.85
2019-02-21T03:02:32.417Z,3.83
2019-02-21T03:05:21.718Z,3.85
2019-02-21T03:08:11.209Z,3.87
2019-02-21T03:11:00.970Z,3.89
2019-02-21T03:13:50.414Z,3.88
2019-02-21T03:16:39.895Z,3.90
2019-02-21T03:19:29.476Z,3.92
2019-02-21T03:22:18.715Z,3.92
2019-02-21T03:25:08.574Z,3.92
2019-02-21T03:27:58.167Z,3.94
2019-02-21T03:30:47.761Z,3.96
2019-02-21T03:33:37.127Z,3.97
2019-02-21T03:36:26.669Z,3.98
2019-02-21T03:39:16.223Z,3.98
2019-02-21T03:42:05.951Z,3.99
2019-02-21T03:44:55.239Z,3.98
2019-02-21T03:47:44.778Z,3.96
2019-02-21T03:50:34.264Z,3.96
2019-02-21T03:53:23.510Z,3.95
2019-02-21T03:56:12.952Z,3.97
2019-02-21T03:59:02.255Z,3.95
2019-02-21T04:01:51.480Z,3.92
2019-02-21T04:04:40.624Z,3.91
2019-02-21T04:07:30.335Z,3.90
2019-02-21T04:10:19.771Z,3.88
2019-02-21T04:13:09.142Z,3.85
2019-02-21T04:15:58.495Z,3.83
2019-02-21T04:18:47.811Z,3.75
2019-02-21T04:21:37.267Z,3.71
2019-02-21T04:24:26.603Z,3.66
2019-02-21T04:27:16.446Z,3.62
2019-02-21T04:30:06.281Z,3.59
2019-02-21T04:32:55.807Z,3.58
2019-02-21T04:35:45.392Z,3.59
2019-02-21T04:38:34.990Z,3.59
2019-02-21T04:41:24.261Z,3.58
2019-02-21T04:44:14.776Z,3.55
2019-02-21T04:47:04.734Z,3.57
2019-02-21T04:49:54.092Z,3.54
2019-02-21T04:52:43.397Z,3.52
2019-02-21T04:55:32.616Z,3.53
2019-02-21T04:58:21.912Z,3.55
2019-02-21T05:01:11.476Z,3.57
2019-02-21T05:04:00.905Z,3.57
2019-02-21T05:06:50.612Z,3.57
2019-02-21T05:09:40.186Z,3.59
2019-02-21T05:12:29.818Z,3.60
2019-02-21T05:15:19.123Z,3.63
2019-02-21T05:18:08.677Z,3.66
2019-02-21T05:20:58.200Z,3.68
2019-02-21T05:23:47.956Z,3.70
2019-02-21T05:26:44.189Z,3.71
2019-02-21T05:29:33.488Z,3.71
2019-02-21T05:32:41.096Z,3.74
2019-02-21T05:35:43.417Z,3.74
2019-02-21T05:38:54.689Z,3.74
2019-02-21T05:42:09.159Z,3.72
2019-02-21T05:45:21.008Z,3.73
2019-02-21T05:48:26.370Z,3.72
2019-02-21T05:51:30.193Z,3.70
2019-02-21T05:54:38.778Z,3.68
2019-02-21T05:57:37.600Z,3.67
2019-02-21T06:00:40.873Z,3.68
2019-02-21T06:03:42.549Z,3.67
2019-02-21T06:06:48.100Z,3.69
2019-02-21T06:09:56.317Z,3.71
2019-02-21T06:13:04.890Z,3.69
2019-02-21T06:16:13.348Z,3.72
2019-02-21T06:19:20.523Z,3.73
2019-02-21T06:22:28.715Z,3.78
2019-02-21T06:25:51.099Z,3.80
2019-02-21T06:28:48.483Z,3.84
2019-02-21T06:31:37.949Z,3.87
2019-02-21T06:34:27.506Z,3.90
2019-02-21T06:37:16.866Z,3.95
2019-02-21T06:40:06.375Z,3.99
2019-02-21T06:42:55.809Z,4.05
2019-02-21T06:45:45.052Z,4.11
2019-02-21T06:48:34.959Z,4.15
2019-02-21T06:51:24.265Z,4.21
2019-02-21T06:54:13.862Z,4.27
2019-02-21T06:57:03.459Z,4.32
2019-02-21T06:59:53.833Z,4.37
2019-02-21T07:02:43.239Z,4.42
2019-02-21T07:05:36.793Z,4.46
2019-02-21T07:08:25.311Z,4.53
2019-02-21T07:11:14.603Z,4.61
2019-02-21T07:14:04.213Z,4.70
2019-02-21T07:16:53.780Z,4.80
2019-02-21T07:19:43.342Z,4.86
2019-02-21T07:22:34.690Z,4.94
2019-02-21T07:25:37.457Z,5.00
2019-02-21T07:28:27.867Z,5.08
2019-02-21T07:31:28.172Z,5.15
2019-02-21T07:34:08.816Z,5.23
2019-02-21T07:36:58.425Z,5.31
2019-02-21T07:39:50.833Z,5.39
2019-02-21T07:42:39.888Z,5.53
2019-02-21T07:45:29.268Z,5.66
2019-02-21T07:48:19.167Z,5.81
2019-02-21T07:51:08.597Z,5.89
2019-02-21T07:53:58.070Z,6.07
2019-02-21T07:56:47.591Z,6.25
2019-02-21T07:59:37.229Z,6.43
2019-02-21T08:02:26.712Z,6.52
2019-02-21T08:05:16.315Z,6.49
2019-02-21T08:08:06.020Z,6.51
2019-02-21T08:10:55.332Z,6.62
2019-02-21T08:13:44.530Z,6.49
2019-02-21T08:16:33.831Z,6.53
2019-02-21T08:19:23.127Z,6.61
2019-02-21T08:22:12.618Z,6.65
2019-02-21T08:25:02.377Z,6.72
2019-02-21T08:27:52.002Z,6.82
2019-02-21T08:30:41.189Z,6.86
2019-02-21T08:33:40.191Z,6.91
2019-02-21T08:36:29.669Z,6.94
2019-02-21T08:39:19.273Z,7.08
2019-02-21T08:42:08.713Z,7.17
2019-02-21T08:44:58.031Z,7.15
2019-02-21T08:47:47.356Z,7.08
2019-02-21T08:50:37.024Z,7.01
2019-02-21T08:53:28.181Z,6.95
2019-02-21T08:56:18.009Z,6.93
2019-02-21T08:59:07.456Z,6.92
2019-02-21T09:01:56.639Z,6.92
2019-02-21T09:04:45.919Z,6.95
2019-02-21T09:07:35.235Z,7.06
2019-02-21T09:10:27.463Z,7.28
2019-02-21T09:13:15.834Z,7.51
2019-02-21T09:16:05.545Z,7.73
2019-02-21T09:18:55.272Z,7.96
2019-02-21T09:21:44.867Z,8.22
2019-02-21T09:24:39.976Z,8.31
2019-02-21T09:27:25.057Z,8.46
2019-02-21T09:30:16.533Z,8.66
2019-02-21T09:33:16.664Z,8.95
2019-02-21T09:35:57.109Z,9.12
2019-02-21T09:38:46.435Z,9.30
2019-02-21T09:41:36.169Z,9.36
2019-02-21T09:44:27.360Z,9.26
2019-02-21T09:47:16.544Z,9.12
2019-02-21T09:50:05.877Z,9.02
2019-02-21T09:52:55.121Z,9.08
2019-02-21T09:55:44.698Z,8.83
2019-02-21T09:58:34.908Z,8.81
2019-02-21T10:01:24.832Z,8.71
2019-02-21T10:04:14.419Z,8.73
2019-02-21T10:07:04.076Z,8.93
2019-02-21T10:09:53.523Z,8.97
2019-02-21T10:12:43.239Z,9.02
2019-02-21T10:15:32.548Z,9.01
2019-02-21T10:18:22.332Z,9.21
2019-02-21T10:21:12.665Z,9.53
2019-02-21T10:24:02.559Z,9.83
2019-02-21T10:26:51.867Z,10.07
2019-02-21T10:29:41.764Z,10.29
2019-02-21T10:32:31.170Z,10.45
2019-02-21T10:35:20.626Z,10.61
2019-02-21T10:38:10.276Z,10.81
2019-02-21T10:40:59.877Z,11.06
2019-02-21T10:43:49.412Z,11.14
2019-02-21T10:46:38.962Z,11.06
2019-02-21T10:49:28.475Z,11.10
2019-02-21T10:52:17.779Z,11.29
2019-02-21T10:55:07.686Z,11.58
2019-02-21T10:57:57.137Z,11.68
2019-02-21T11:00:46.563Z,11.66
2019-02-21T11:03:36.231Z,11.66
2019-02-21T11:06:25.611Z,11.88
2019-02-21T11:09:21.917Z,12.03
2019-02-21T11:12:11.952Z,12.03
2019-02-21T11:15:01.275Z,12.15
2019-02-21T11:17:50.895Z,12.07
2019-02-21T11:20:40.610Z,11.97
2019-02-21T11:23:30.116Z,11.84
2019-02-21T11:26:19.365Z,12.08
2019-02-21T11:29:09.296Z,12.14
2019-02-21T11:31:58.670Z,12.14
2019-02-21T11:34:47.902Z,12.35
2019-02-21T11:37:43.224Z,12.42
2019-02-21T11:40:28.123Z,12.52
2019-02-21T11:43:17.626Z,12.52
2019-02-21T11:46:07.691Z,12.64
2019-02-21T11:48:57.101Z,12.59
2019-02-21T11:51:48.157Z,12.31
2019-02-21T11:54:37.527Z,12.05
2019-02-21T11:57:27.643Z,12.05
2019-02-21T12:00:22.259Z,12.03
2019-02-21T12:03:11.575Z,12.18
2019-02-21T12:06:01.108Z,12.43
2019-02-21T12:08:50.532Z,12.66
2019-02-21T12:11:39.833Z,12.87
2019-02-21T12:14:29.124Z,13.11
2019-02-21T12:17:18.677Z,13.16
2019-02-21T12:20:10.230Z,13.34
2019-02-21T12:22:59.894Z,13.33
2019-02-21T12:25:49.461Z,13.19
2019-02-21T12:28:38.642Z,12.81
2019-02-21T12:31:28.163Z,12.52
2019-02-21T12:34:17.415Z,12.38
2019-02-21T12:37:07.273Z,12.27
2019-02-21T12:39:56.704Z,12.34
2019-02-21T12:42:46.285Z,12.19
2019-02-21T12:45:35.938Z,12.18
2019-02-21T12:48:25.446Z,12.29
2019-02-21T12:51:14.850Z,12.19
2019-02-21T12:54:04.217Z,12.18
2019-02-21T12:56:53.686Z,12.10
2019-02-21T12:59:43.309Z,12.11
2019-02-21T13:02:32.813Z,12.22
2019-02-21T13:05:22.500Z,12.21
2019-02-21T13:08:12.218Z,12.27
2019-02-21T13:11:01.594Z,12.28
2019-02-21T13:13:51.200Z,12.27
2019-02-21T13:16:40.798Z,12.42
2019-02-21T13:19:30.384Z,12.43
2019-02-21T13:22:20.524Z,12.51
2019-02-21T13:25:13.139Z,12.56
2019-02-21T13:28:02.999Z,12.35
2019-02-21T13:30:52.406Z,12.35
2019-02-21T13:33:41.912Z,12.36
2019-02-21T13:36:33.861Z,12.32
2019-02-21T13:39:22.520Z,12.22
2019-02-21T13:42:12.275Z,12.15
2019-02-21T13:45:01.494Z,12.24
2019-02-21T13:47:51.002Z,12.15
2019-02-21T13:50:40.559Z,12.18
2019-02-21T13:53:30.260Z,12.21
2019-02-21T13:56:19.946Z,12.22
2019-02-21T13:59:09.415Z,12.21
2019-02-21T14:01:59.247Z,12.22
2019-02-21T14:04:48.513Z,12.25
2019-02-21T14:07:37.844Z,12.30
2019-02-21T14:10:27.108Z,12.23
2019-02-21T14:13:16.422Z,12.33
2019-02-21T14:16:05.934Z,12.24
2019-02-21T14:18:55.448Z,12.17
2019-02-21T14:21:45.022Z,12.12
2019-02-21T14:24:37.186Z,12.02
2019-02-21T14:27:26.037Z,11.99
2019-02-21T14:30:17.071Z,12.07
2019-02-21T14:33:08.154Z,11.92
2019-02-21T14:35:57.717Z,11.86
2019-02-21T14:38:47.424Z,11.83
2019-02-21T14:41:36.767Z,11.86
2019-02-21T14:44:26.185Z,11.83
2019-02-21T14:47:15.374Z,11.76
2019-02-21T14:50:06.670Z,11.65
2019-02-21T14:52:55.978Z,11.68
2019-02-21T14:55:45.496Z,11.65
2019-02-21T14:58:35.063Z,11.66
2019-02-21T15:01:24.399Z,11.72
2019-02-21T15:04:14.096Z,11.58
2019-02-21T15:07:06.444Z,11.58
2019-02-21T15:09:54.923Z,11.45
2019-02-21T15:12:44.241Z,11.45
2019-02-21T15:15:33.541Z,11.52
2019-02-21T15:18:22.865Z,11.50
2019-02-21T15:21:14.881Z,11.37
2019-02-21T15:24:04.176Z,11.26
2019-02-21T15:26:53.631Z,11.22
2019-02-21T15:29:43.283Z,11.13
2019-02-21T15:32:32.414Z,11.02
2019-02-21T15:35:21.969Z,10.99
2019-02-21T15:38:19.628Z,10.90
2019-02-21T15:41:02.911Z,10.90
2019-02-21T15:43:52.402Z,10.94
2019-02-21T15:46:42.126Z,10.92
2019-02-21T15:49:33.512Z,10.82
2019-02-21T15:52:23.041Z,10.71
2019-02-21T15:55:13.666Z,10.67
2019-02-21T15:58:04.493Z,9.81
2019-02-21T16:00:54.176Z,10.53
2019-02-21T16:03:43.656Z,10.41
2019-02-21T16:06:33.338Z,10.44
2019-02-21T16:09:25.154Z,10.43
2019-02-21T16:12:14.630Z,10.35
2019-02-21T16:15:04.806Z,10.29
2019-02-21T16:17:54.393Z,10.19
2019-02-21T16:20:43.980Z,10.23
2019-02-21T16:23:33.609Z,10.09
2019-02-21T16:26:23.190Z,10.02
2019-02-21T16:29:13.101Z,9.93
2019-02-21T16:32:02.497Z,9.68
2019-02-21T16:34:52.002Z,9.82
2019-02-21T16:37:42.041Z,9.79
2019-02-21T16:40:31.452Z,9.70
2019-02-21T16:43:20.788Z,9.66
2019-02-21T16:46:10.233Z,9.66
2019-02-21T16:48:59.508Z,9.65
2019-02-21T16:51:49.132Z,9.65
2019-02-21T16:54:38.992Z,9.62
2019-02-21T16:57:28.329Z,9.56
2019-02-21T17:00:18.209Z,9.51
2019-02-21T17:03:07.656Z,9.45
2019-02-21T17:05:57.371Z,9.40
2019-02-21T17:08:46.915Z,9.36
2019-02-21T17:11:36.446Z,9.33
2019-02-21T17:14:26.404Z,9.28
2019-02-21T17:17:15.809Z,9.24
2019-02-21T17:20:06.535Z,9.23
2019-02-21T17:22:56.214Z,9.22
2019-02-21T17:25:47.704Z,9.24
2019-02-21T17:28:37.088Z,9.25
2019-02-21T17:31:28.323Z,9.25
2019-02-21T17:34:17.798Z,9.26
2019-02-21T17:37:07.211Z,9.25
2019-02-21T17:39:57.017Z,9.23
2019-02-21T17:42:46.670Z,9.21
2019-02-21T17:45:36.150Z,9.19
2019-02-21T17:48:25.718Z,9.15
2019-02-21T17:51:14.993Z,9.11
2019-02-21T17:54:04.661Z,9.11
2019-02-21T17:56:54.114Z,9.07
2019-02-21T17:59:43.948Z,9.03
2019-02-21T18:02:33.281Z,9.03
2019-02-21T18:05:22.539Z,9.03
2019-02-21T18:08:12.204Z,9.02
2019-02-21T18:11:02.148Z,9.00
2019-02-21T18:13:51.404Z,8.97
2019-02-21T18:16:41.176Z,8.97
2019-02-21T18:19:30.721Z,8.97
2019-02-21T18:22:20.009Z,8.92
2019-02-21T18:25:28.321Z,8.88
2019-02-21T18:28:17.719Z,8.86
2019-02-21T18:31:07.306Z,8.80
2019-02-21T18:33:56.567Z,8.76
2019-02-21T18:36:46.145Z,8.73
2019-02-21T18:39:35.916Z,8.72
2019-02-21T18:42:25.538Z,8.68
2019-02-21T18:45:15.102Z,8.65
2019-02-21T18:48:04.399Z,8.62
2019-02-21T18:50:53.990Z,8.58
2019-02-21T18:53:43.681Z,8.54
2019-02-21T18:56:33.268Z,8.51
2019-02-21T18:59:31.457Z,8.49
2019-02-21T19:02:16.112Z,8.50
2019-02-21T19:05:06.177Z,8.50
2019-02-21T19:08:03.296Z,8.48
2019-02-21T19:10:46.719Z,8.45
2019-02-21T19:13:37.150Z,8.42
2019-02-21T19:16:26.866Z,8.41
2019-02-21T19:19:16.391Z,8.39
2019-02-21T19:22:06.218Z,8.40
2019-02-21T19:24:55.918Z,8.34
2019-02-21T19:27:45.763Z,8.31
2019-02-21T19:30:48.486Z,8.28
2019-02-21T19:33:38.185Z,8.25
2019-02-21T19:36:27.550Z,8.23
2019-02-21T19:39:16.963Z,8.21
2019-02-21T19:42:06.508Z,8.21
2019-02-21T19:44:55.979Z,8.22
2019-02-21T19:47:45.694Z,8.23
2019-02-21T19:50:35.045Z,8.23
2019-02-21T19:53:24.334Z,8.23
2019-02-21T19:56:13.675Z,8.23
2019-02-21T19:59:02.995Z,8.24
2019-02-21T20:01:53.256Z,8.27
2019-02-21T20:04:42.702Z,8.29
2019-02-21T20:07:32.250Z,8.31
2019-02-21T20:10:21.886Z,8.35
2019-02-21T20:13:11.461Z,8.35
2019-02-21T20:16:00.790Z,8.34
2019-02-21T20:18:50.153Z,8.36
2019-02-21T20:21:39.714Z,8.37
2019-02-21T20:24:29.111Z,8.40
2019-02-21T20:27:18.702Z,8.41
2019-02-21T20:30:09.813Z,8.41
2019-02-21T20:32:59.407Z,8.52
2019-02-21T20:35:48.660Z,8.46
2019-02-21T20:38:38.202Z,8.46
2019-02-21T20:41:27.811Z,8.45
2019-02-21T20:44:19.231Z,8.47
2019-02-21T20:47:10.301Z,8.46
2019-02-21T20:49:59.545Z,8.48
2019-02-21T20:52:49.203Z,8.46
2019-02-21T20:55:43.664Z,8.34
2019-02-21T20:58:29.970Z,8.25
2019-02-21T21:01:20.375Z,8.21
2019-02-21T21:04:09.699Z,8.15
2019-02-21T21:06:59.109Z,8.13
2019-02-21T21:09:48.745Z,8.09
2019-02-21T21:12:38.029Z,8.06
2019-02-21T21:15:27.299Z,8.02
2019-02-21T21:18:16.658Z,8.14
2019-02-21T21:21:06.048Z,8.04
2019-02-21T21:23:55.304Z,8.03
2019-02-21T21:26:45.007Z,7.98
2019-02-21T21:29:36.148Z,8.01
2019-02-21T21:32:25.313Z,8.02
2019-02-21T21:35:14.645Z,8.01
2019-02-21T21:38:04.151Z,8.03
2019-02-21T21:40:53.730Z,7.96
2019-02-21T21:43:43.162Z,8.00
2019-02-21T21:46:32.739Z,7.95
2019-02-21T21:49:22.164Z,7.98
2019-02-21T21:52:11.495Z,7.98
2019-02-21T21:55:00.875Z,8.02
2019-02-21T21:57:50.124Z,8.16
2019-02-21T22:00:39.382Z,8.09
2019-02-21T22:03:28.805Z,8.04
2019-02-21T22:06:19.828Z,7.97
2019-02-21T22:09:09.288Z,7.91
2019-02-21T22:11:58.831Z,7.81
2019-02-21T22:14:48.327Z,7.75
2019-02-21T22:17:37.858Z,7.65
2019-02-21T22:20:27.470Z,7.61
2019-02-21T22:23:17.107Z,7.61
2019-02-21T22:26:06.530Z,7.61
2019-02-21T22:28:56.052Z,7.56
2019-02-21T22:31:45.674Z,7.55
2019-02-21T22:34:35.241Z,7.55
2019-02-21T22:37:24.704Z,7.55
2019-02-21T22:40:14.397Z,7.55
2019-02-21T22:43:03.915Z,7.55
2019-02-21T22:45:53.635Z,7.71
2019-02-21T22:48:47.414Z,7.66
2019-02-21T22:51:36.086Z,7.62
2019-02-21T22:54:25.383Z,7.68
2019-02-21T22:57:14.754Z,7.76
2019-02-21T23:00:06.082Z,7.77
2019-02-21T23:02:55.734Z,7.72
2019-02-21T23:06:08.525Z,7.79
2019-02-21T23:08:58.125Z,7.81
2019-02-21T23:11:47.600Z,7.77
2019-02-21T23:14:37.157Z,7.75
2019-02-21T23:17:26.703Z,7.85
2019-02-21T23:20:16.032Z,7.97
2019-02-21T23:23:05.583Z,7.95
2019-02-21T23:25:55.101Z,8.01
2019-02-21T23:28:44.342Z,8.02
2019-02-21T23:31:33.834Z,8.04
2019-02-21T23:34:33.354Z,8.09
2019-02-21T23:37:22.889Z,8.10
2019-02-21T23:40:12.462Z,8.15
2019-02-21T23:43:01.921Z,8.24
2019-02-21T23:45:51.207Z,8.28
2019-02-21T23:48:40.807Z,8.34
2019-02-21T23:51:30.071Z,8.35
2019-02-21T23:54:19.364Z,8.35
2019-02-21T23:57:08.842Z,8.37
2019-02-21T23:59:58.209Z,8.40
